sensor_id;sensor_type;location;lat;lon;timestamp;pressure;altitude;pressure_sealevel;temperature;humidity
46614;BME280;32338;50.430;6.806;2023-05-27T00:00:11;66325.75;;;8.35;100.00
46614;BME280;32338;50.430;6.806;2023-05-27T00:02:37;66315.22;;;8.21;100.00
46614;BME280;32338;50.430;6.806;2023-05-27T00:05:04;66314.84;;;8.23;100.00
46614;BME280;32338;50.430;6.806;2023-05-27T00:07:32;66296.88;;;8.06;100.00
46614;BME280;32338;50.430;6.806;2023-05-27T00:09:59;66287.31;;;7.98;100.00
46614;BME280;32338;50.430;6.806;2023-05-27T00:12:25;66295.75;;;8.05;100.00
46614;BME280;32338;50.430;6.806;2023-05-27T00:14:52;66296.28;;;8.06;100.00
46614;BME280;32338;50.430;6.806;2023-05-27T00:17:19;66304.31;;;8.08;100.00
46614;BME280;32338;50.430;6.806;2023-05-27T00:19:46;66302.13;;;8.14;100.00
46614;BME280;32338;50.430;6.806;2023-05-27T00:22:14;66307.34;;;8.14;100.00
46614;BME280;32338;50.430;6.806;2023-05-27T00:24:42;66299.47;;;8.06;100.00
46614;BME280;32338;50.430;6.806;2023-05-27T00:27:09;66286.75;;;7.97;100.00
46614;BME280;32338;50.430;6.806;2023-05-27T00:29:36;66286.38;;;7.99;100.00
46614;BME280;32338;50.430;6.806;2023-05-27T00:32:03;66282.25;;;7.93;100.00
46614;BME280;32338;50.430;6.806;2023-05-27T00:34:30;66275.84;;;7.85;100.00
46614;BME280;32338;50.430;6.806;2023-05-27T00:36:58;66271.38;;;7.81;100.00
46614;BME280;32338;50.430;6.806;2023-05-27T00:39:25;66260.31;;;7.73;100.00
46614;BME280;32338;50.430;6.806;2023-05-27T00:41:54;66256.75;;;7.67;100.00
46614;BME280;32338;50.430;6.806;2023-05-27T00:44:21;66245.34;;;7.61;100.00
46614;BME280;32338;50.430;6.806;2023-05-27T00:46:47;66245.72;;;7.59;100.00
46614;BME280;32338;50.430;6.806;2023-05-27T00:49:14;66244.38;;;7.56;100.00
46614;BME280;32338;50.430;6.806;2023-05-27T00:51:41;66236.16;;;7.51;100.00
46614;BME280;32338;50.430;6.806;2023-05-27T00:54:08;66235.03;;;7.50;100.00
46614;BME280;32338;50.430;6.806;2023-05-27T00:56:36;66234.81;;;7.47;100.00
46614;BME280;32338;50.430;6.806;2023-05-27T00:59:04;66236.88;;;7.46;100.00
46614;BME280;32338;50.430;6.806;2023-05-27T01:01:31;66226.25;;;7.44;100.00
46614;BME280;32338;50.430;6.806;2023-05-27T01:03:59;66223.78;;;7.39;100.00
46614;BME280;32338;50.430;6.806;2023-05-27T01:06:31;66216.31;;;7.30;100.00
46614;BME280;32338;50.430;6.806;2023-05-27T01:09:08;66214.03;;;7.28;100.00
46614;BME280;32338;50.430;6.806;2023-05-27T01:11:41;66206.56;;;7.26;100.00
46614;BME280;32338;50.430;6.806;2023-05-27T01:14:12;66201.88;;;7.19;100.00
46614;BME280;32338;50.430;6.806;2023-05-27T01:16:40;66199.09;;;7.17;100.00
46614;BME280;32338;50.430;6.806;2023-05-27T01:19:13;66201.50;;;7.14;100.00
46614;BME280;32338;50.430;6.806;2023-05-27T01:21:40;66183.00;;;7.04;100.00
46614;BME280;32338;50.430;6.806;2023-05-27T01:24:11;66181.81;;;6.96;100.00
46614;BME280;32338;50.430;6.806;2023-05-27T01:26:38;66172.47;;;6.90;100.00
46614;BME280;32338;50.430;6.806;2023-05-27T01:29:06;66167.63;;;6.88;100.00
46614;BME280;32338;50.430;6.806;2023-05-27T01:31:36;66165.94;;;6.86;100.00
46614;BME280;32338;50.430;6.806;2023-05-27T01:34:08;66165.94;;;6.86;100.00
46614;BME280;32338;50.430;6.806;2023-05-27T01:36:39;66170.03;;;6.85;100.00
46614;BME280;32338;50.430;6.806;2023-05-27T01:39:10;66157.72;;;6.81;100.00
46614;BME280;32338;50.430;6.806;2023-05-27T01:41:39;66160.31;;;6.81;100.00
46614;BME280;32338;50.430;6.806;2023-05-27T01:44:06;66159.22;;;6.80;100.00
46614;BME280;32338;50.430;6.806;2023-05-27T01:46:33;66160.69;;;6.79;100.00
46614;BME280;32338;50.430;6.806;2023-05-27T01:49:00;66159.00;;;6.77;100.00
46614;BME280;32338;50.430;6.806;2023-05-27T01:51:26;66159.97;;;6.83;100.00
46614;BME280;32338;50.430;6.806;2023-05-27T01:53:53;66158.84;;;6.82;100.00
46614;BME280;32338;50.430;6.806;2023-05-27T01:56:21;66153.16;;;6.70;100.00
46614;BME280;32338;50.430;6.806;2023-05-27T01:58:48;66142.16;;;6.62;100.00
46614;BME280;32338;50.430;6.806;2023-05-27T02:01:15;66137.09;;;6.57;100.00
46614;BME280;32338;50.430;6.806;2023-05-27T02:03:41;66129.25;;;6.50;100.00
46614;BME280;32338;50.430;6.806;2023-05-27T02:06:08;66123.06;;;6.44;100.00
46614;BME280;32338;50.430;6.806;2023-05-27T02:08:34;66106.63;;;6.34;100.00
46614;BME280;32338;50.430;6.806;2023-05-27T02:11:01;66103.41;;;6.26;100.00
46614;BME280;32338;50.430;6.806;2023-05-27T02:13:29;66097.63;;;6.26;100.00
46614;BME280;32338;50.430;6.806;2023-05-27T02:15:56;66099.13;;;6.25;100.00
46614;BME280;32338;50.430;6.806;2023-05-27T02:18:22;66098.94;;;6.22;100.00
46614;BME280;32338;50.430;6.806;2023-05-27T02:20:50;66097.81;;;6.21;100.00
46614;BME280;32338;50.430;6.806;2023-05-27T02:23:17;66092.41;;;6.19;100.00
46614;BME280;32338;50.430;6.806;2023-05-27T02:25:43;66091.81;;;6.18;100.00
46614;BME280;32338;50.430;6.806;2023-05-27T02:28:10;66087.91;;;6.14;100.00
46614;BME280;32338;50.430;6.806;2023-05-27T02:30:38;66089.38;;;6.13;100.00
46614;BME280;32338;50.430;6.806;2023-05-27T02:33:04;66082.84;;;6.10;100.00
46614;BME280;32338;50.430;6.806;2023-05-27T02:35:31;66083.75;;;6.08;100.00
46614;BME280;32338;50.430;6.806;2023-05-27T02:37:58;66078.94;;;6.06;100.00
46614;BME280;32338;50.430;6.806;2023-05-27T02:40:25;66078.34;;;6.06;100.00
46614;BME280;32338;50.430;6.806;2023-05-27T02:42:51;66080.41;;;6.05;100.00
46614;BME280;32338;50.430;6.806;2023-05-27T02:45:18;66077.22;;;6.05;100.00
46614;BME280;32338;50.430;6.806;2023-05-27T02:47:46;66072.19;;;6.00;100.00
46614;BME280;32338;50.430;6.806;2023-05-27T02:50:13;66071.63;;;5.99;100.00
46614;BME280;32338;50.430;6.806;2023-05-27T02:52:39;66063.38;;;5.94;100.00
46614;BME280;32338;50.430;6.806;2023-05-27T02:55:07;66066.16;;;5.90;100.00
46614;BME280;32338;50.430;6.806;2023-05-27T02:57:34;66057.22;;;5.89;100.00
46614;BME280;32338;50.430;6.806;2023-05-27T03:00:00;66068.03;;;5.94;100.00
46614;BME280;32338;50.430;6.806;2023-05-27T03:02:27;66064.88;;;5.93;100.00
46614;BME280;32338;50.430;6.806;2023-05-27T03:04:55;66063.19;;;5.92;100.00
46614;BME280;32338;50.430;6.806;2023-05-27T03:07:22;66049.38;;;5.81;100.00
46614;BME280;32338;50.430;6.806;2023-05-27T03:09:48;66047.13;;;5.79;100.00
46614;BME280;32338;50.430;6.806;2023-05-27T03:12:15;66046.38;;;5.76;100.00
46614;BME280;32338;50.430;6.806;2023-05-27T03:14:42;66039.06;;;5.69;100.00
46614;BME280;32338;50.430;6.806;2023-05-27T03:17:08;66038.84;;;5.67;100.00
46614;BME280;32338;50.430;6.806;2023-05-27T03:19:35;66034.78;;;5.68;100.00
46614;BME280;32338;50.430;6.806;2023-05-27T03:22:03;66045.19;;;5.68;100.00
46614;BME280;32338;50.430;6.806;2023-05-27T03:24:30;66046.50;;;5.72;100.00
46614;BME280;32338;50.430;6.806;2023-05-27T03:26:56;66033.09;;;5.66;100.00
46614;BME280;32338;50.430;6.806;2023-05-27T03:29:23;66028.41;;;5.60;100.00
46614;BME280;32338;50.430;6.806;2023-05-27T03:31:49;66022.03;;;5.51;100.00
46614;BME280;32338;50.430;6.806;2023-05-27T03:34:16;66016.81;;;5.51;100.00
46614;BME280;32338;50.430;6.806;2023-05-27T03:36:43;66016.63;;;5.49;100.00
46614;BME280;32338;50.430;6.806;2023-05-27T03:39:13;66020.91;;;5.50;100.00
46614;BME280;32338;50.430;6.806;2023-05-27T03:41:39;66020.34;;;5.50;100.00
46614;BME280;32338;50.430;6.806;2023-05-27T03:44:06;66014.56;;;5.49;100.00
46614;BME280;32338;50.430;6.806;2023-05-27T03:46:34;66007.66;;;5.41;100.00
46614;BME280;32338;50.430;6.806;2023-05-27T03:49:00;66000.75;;;5.39;100.00
46614;BME280;32338;50.430;6.806;2023-05-27T03:51:27;66011.03;;;5.44;100.00
46614;BME280;32338;50.430;6.806;2023-05-27T03:53:54;66008.56;;;5.39;100.00
46614;BME280;32338;50.430;6.806;2023-05-27T03:56:22;66010.81;;;5.41;100.00
46614;BME280;32338;50.430;6.806;2023-05-27T03:58:49;66005.63;;;5.41;100.00
46614;BME280;32338;50.430;6.806;2023-05-27T04:01:16;66005.03;;;5.41;100.00
46614;BME280;32338;50.430;6.806;2023-05-27T04:03:43;66008.41;;;5.44;100.00
46614;BME280;32338;50.430;6.806;2023-05-27T04:06:09;66016.78;;;5.44;100.00
46614;BME280;32338;50.430;6.806;2023-05-27T04:08:36;66010.25;;;5.41;100.00
46614;BME280;32338;50.430;6.806;2023-05-27T04:11:04;66008.22;;;5.41;100.00
46614;BME280;32338;50.430;6.806;2023-05-27T04:13:32;66013.63;;;5.44;100.00
46614;BME280;32338;50.430;6.806;2023-05-27T04:15:59;66010.25;;;5.41;100.00
46614;BME280;32338;50.430;6.806;2023-05-27T04:18:25;66011.16;;;5.39;100.00
46614;BME280;32338;50.430;6.806;2023-05-27T04:20:52;66003.75;;;5.37;100.00
46614;BME280;32338;50.430;6.806;2023-05-27T04:23:18;66006.88;;;5.38;100.00
46614;BME280;32338;50.430;6.806;2023-05-27T04:25:45;66012.69;;;5.45;100.00
46614;BME280;32338;50.430;6.806;2023-05-27T04:28:13;66017.91;;;5.45;100.00
46614;BME280;32338;50.430;6.806;2023-05-27T04:30:42;66015.31;;;5.45;100.00
46614;BME280;32338;50.430;6.806;2023-05-27T04:33:09;66022.38;;;5.49;100.00
46614;BME280;32338;50.430;6.806;2023-05-27T04:35:36;66021.69;;;5.54;100.00
46614;BME280;32338;50.430;6.806;2023-05-27T04:38:03;66033.25;;;5.62;100.00
46614;BME280;32338;50.430;6.806;2023-05-27T04:40:29;66037.19;;;5.65;100.00
46614;BME280;32338;50.430;6.806;2023-05-27T04:42:56;66037.38;;;5.68;100.00
46614;BME280;32338;50.430;6.806;2023-05-27T04:45:22;66048.97;;;5.76;100.00
46614;BME280;32338;50.430;6.806;2023-05-27T04:47:51;66046.16;;;5.74;100.00
46614;BME280;32338;50.430;6.806;2023-05-27T04:50:17;66045.22;;;5.75;100.00
46614;BME280;32338;50.430;6.806;2023-05-27T04:52:44;66049.16;;;5.79;100.00
46614;BME280;32338;50.430;6.806;2023-05-27T04:55:10;66057.38;;;5.84;100.00
46614;BME280;32338;50.430;6.806;2023-05-27T04:57:37;66050.28;;;5.80;100.00
46614;BME280;32338;50.430;6.806;2023-05-27T05:00:07;66053.09;;;5.82;100.00
46614;BME280;32338;50.430;6.806;2023-05-27T05:02:48;66070.84;;;5.96;100.00
46614;BME280;32338;50.430;6.806;2023-05-27T05:05:16;66069.38;;;5.97;100.00
46614;BME280;32338;50.430;6.806;2023-05-27T05:07:43;66075.56;;;6.03;100.00
46614;BME280;32338;50.430;6.806;2023-05-27T05:10:10;66082.66;;;6.07;100.00
46614;BME280;32338;50.430;6.806;2023-05-27T05:12:37;66084.13;;;6.06;100.00
46614;BME280;32338;50.430;6.806;2023-05-27T05:15:05;66086.00;;;6.10;100.00
46614;BME280;32338;50.430;6.806;2023-05-27T05:17:33;66078.56;;;6.08;100.00
46614;BME280;32338;50.430;6.806;2023-05-27T05:20:00;66088.81;;;6.13;100.00
46614;BME280;32338;50.430;6.806;2023-05-27T05:22:28;66088.09;;;6.17;100.00
46614;BME280;32338;50.430;6.806;2023-05-27T05:24:54;66103.97;;;6.27;100.00
46614;BME280;32338;50.430;6.806;2023-05-27T05:27:21;66112.03;;;6.37;100.00
46614;BME280;32338;50.430;6.806;2023-05-27T05:29:48;66121.59;;;6.45;100.00
46614;BME280;32338;50.430;6.806;2023-05-27T05:32:14;66128.31;;;6.52;100.00
46614;BME280;32338;50.430;6.806;2023-05-27T05:34:41;66152.63;;;6.69;100.00
46614;BME280;32338;50.430;6.806;2023-05-27T05:37:08;66164.97;;;6.80;100.00
46614;BME280;32338;50.430;6.806;2023-05-27T05:39:37;66171.34;;;6.89;100.00
46614;BME280;32338;50.430;6.806;2023-05-27T05:42:04;66183.72;;;7.00;100.00
46614;BME280;32338;50.430;6.806;2023-05-27T05:44:31;66184.13;;;7.05;100.00
46614;BME280;32338;50.430;6.806;2023-05-27T05:46:59;66197.56;;;7.10;100.00
46614;BME280;32338;50.430;6.806;2023-05-27T05:49:26;66204.28;;;7.17;100.00
46614;BME280;32338;50.430;6.806;2023-05-27T05:51:52;66209.91;;;7.22;100.00
46614;BME280;32338;50.430;6.806;2023-05-27T05:54:19;66209.75;;;7.26;100.00
46614;BME280;32338;50.430;6.806;2023-05-27T05:56:49;66216.50;;;7.33;100.00
46614;BME280;32338;50.430;6.806;2023-05-27T05:59:15;66223.25;;;7.39;100.00
46614;BME280;32338;50.430;6.806;2023-05-27T06:01:42;66234.28;;;7.46;100.00
46614;BME280;32338;50.430;6.806;2023-05-27T06:04:08;66238.75;;;7.51;100.00
46614;BME280;32338;50.430;6.806;2023-05-27T06:06:35;66246.63;;;7.58;100.00
46614;BME280;32338;50.430;6.806;2023-05-27T06:09:02;66257.13;;;7.65;100.00
46614;BME280;32338;50.430;6.806;2023-05-27T06:11:28;66259.00;;;7.69;100.00
46614;BME280;32338;50.430;6.806;2023-05-27T06:13:56;66269.88;;;7.82;100.00
46614;BME280;32338;50.430;6.806;2023-05-27T06:16:23;66280.00;;;7.91;100.00
46614;BME280;32338;50.430;6.806;2023-05-27T06:18:49;66298.72;;;8.03;100.00
46614;BME280;32338;50.430;6.806;2023-05-27T06:21:17;66304.53;;;8.11;100.00
46614;BME280;32338;50.430;6.806;2023-05-27T06:23:43;66317.81;;;8.21;100.00
46614;BME280;32338;50.430;6.806;2023-05-27T06:26:10;66322.94;;;8.33;100.00
46614;BME280;32338;50.430;6.806;2023-05-27T06:28:36;66341.66;;;8.45;100.00
46614;BME280;32338;50.430;6.806;2023-05-27T06:31:04;66350.66;;;8.53;100.00
46614;BME280;32338;50.430;6.806;2023-05-27T06:33:31;66357.06;;;8.62;100.00
46614;BME280;32338;50.430;6.806;2023-05-27T06:35:58;66368.66;;;8.70;100.00
46614;BME280;32338;50.430;6.806;2023-05-27T06:38:24;66379.16;;;8.77;100.00
46614;BME280;32338;50.430;6.806;2023-05-27T06:40:51;66381.81;;;8.84;100.00
46614;BME280;32338;50.430;6.806;2023-05-27T06:43:18;66401.66;;;8.98;100.00
46614;BME280;32338;50.430;6.806;2023-05-27T06:45:44;66408.63;;;9.06;100.00
46614;BME280;32338;50.430;6.806;2023-05-27T06:48:12;66422.50;;;9.17;100.00
46614;BME280;32338;50.430;6.806;2023-05-27T06:50:39;66424.38;;;9.21;100.00
46614;BME280;32338;50.430;6.806;2023-05-27T06:53:05;66425.88;;;9.27;100.00
46614;BME280;32338;50.430;6.806;2023-05-27T06:55:32;66444.09;;;9.39;100.00
46614;BME280;32338;50.430;6.806;2023-05-27T06:57:59;66457.00;;;9.51;100.00
46614;BME280;32338;50.430;6.806;2023-05-27T07:00:25;66468.84;;;9.62;100.00
46614;BME280;32338;50.430;6.806;2023-05-27T07:02:52;66484.03;;;9.76;100.00
46614;BME280;32338;50.430;6.806;2023-05-27T07:05:20;66496.78;;;9.85;100.00
46614;BME280;32338;50.430;6.806;2023-05-27T07:07:46;66503.75;;;9.94;100.00
46614;BME280;32338;50.430;6.806;2023-05-27T07:10:13;66518.41;;;10.07;100.00
46614;BME280;32338;50.430;6.806;2023-05-27T07:12:39;66529.28;;;10.19;100.00
46614;BME280;32338;50.430;6.806;2023-05-27T07:15:07;66542.03;;;10.29;100.00
46614;BME280;32338;50.430;6.806;2023-05-27T07:17:34;66550.88;;;10.34;100.00
46614;BME280;32338;50.430;6.806;2023-05-27T07:20:00;66560.66;;;10.46;100.00
46614;BME280;32338;50.430;6.806;2023-05-27T07:22:28;66563.88;;;10.53;100.00
46614;BME280;32338;50.430;6.806;2023-05-27T07:24:55;66586.59;;;10.69;100.00
46614;BME280;32338;50.430;6.806;2023-05-27T07:27:22;66598.22;;;10.78;100.00
46614;BME280;32338;50.430;6.806;2023-05-27T07:29:48;66614.56;;;10.93;100.00
46614;BME280;32338;50.430;6.806;2023-05-27T07:32:15;66628.28;;;11.08;100.00
46614;BME280;32338;50.430;6.806;2023-05-27T07:34:41;66641.25;;;11.19;100.00
46614;BME280;32338;50.430;6.806;2023-05-27T07:37:08;66639.38;;;11.23;100.00
46614;BME280;32338;50.430;6.806;2023-05-27T07:39:36;66658.16;;;11.35;100.00
46614;BME280;32338;50.430;6.806;2023-05-27T07:42:03;66667.75;;;11.44;100.00
46614;BME280;32338;50.430;6.806;2023-05-27T07:44:30;66679.78;;;11.57;100.00
46614;BME280;32338;50.430;6.806;2023-05-27T07:46:57;66697.84;;;11.74;100.00
46614;BME280;32338;50.430;6.806;2023-05-27T07:49:25;66713.81;;;11.83;100.00
46614;BME280;32338;50.430;6.806;2023-05-27T07:51:52;66717.00;;;11.91;100.00
46614;BME280;32338;50.430;6.806;2023-05-27T07:54:20;66725.88;;;11.97;100.00
46614;BME280;32338;50.430;6.806;2023-05-27T07:56:48;66734.53;;;12.07;100.00
46614;BME280;32338;50.430;6.806;2023-05-27T07:59:14;66746.16;;;12.15;100.00
46614;BME280;32338;50.430;6.806;2023-05-27T08:01:41;66762.72;;;12.33;100.00
46614;BME280;32338;50.430;6.806;2023-05-27T08:04:07;66773.44;;;12.43;100.00
46614;BME280;32338;50.430;6.806;2023-05-27T08:06:34;66796.97;;;12.55;100.00
46614;BME280;32338;50.430;6.806;2023-05-27T08:09:02;66798.28;;;12.65;100.00
46614;BME280;32338;50.430;6.806;2023-05-27T08:11:29;66809.94;;;12.74;100.00
46614;BME280;32338;50.430;6.806;2023-05-27T08:13:59;66819.00;;;12.82;100.00
46614;BME280;32338;50.430;6.806;2023-05-27T08:16:25;66822.19;;;12.90;100.00
46614;BME280;32338;50.430;6.806;2023-05-27T08:18:52;66836.66;;;13.01;100.00
46614;BME280;32338;50.430;6.806;2023-05-27T08:21:19;66852.31;;;13.12;100.00
46614;BME280;32338;50.430;6.806;2023-05-27T08:23:45;66854.75;;;13.17;100.00
46614;BME280;32338;50.430;6.806;2023-05-27T08:26:12;66863.59;;;13.23;100.00
46614;BME280;32338;50.430;6.806;2023-05-27T08:28:39;66877.16;;;13.35;100.00
46614;BME280;32338;50.430;6.806;2023-05-27T08:31:07;66892.59;;;13.52;100.00
46614;BME280;32338;50.430;6.806;2023-05-27T08:33:34;66915.38;;;13.68;100.00
46614;BME280;32338;50.430;6.806;2023-05-27T08:36:01;66916.91;;;13.74;100.00
46614;BME280;32338;50.430;6.806;2023-05-27T08:38:27;66933.09;;;13.86;100.00
46614;BME280;32338;50.430;6.806;2023-05-27T08:40:54;66954.56;;;14.06;100.00
46614;BME280;32338;50.430;6.806;2023-05-27T08:43:21;66968.50;;;14.16;100.00
46614;BME280;32338;50.430;6.806;2023-05-27T08:45:48;66973.03;;;14.27;100.00
46614;BME280;32338;50.430;6.806;2023-05-27T08:48:16;66972.28;;;14.24;100.00
46614;BME280;32338;50.430;6.806;2023-05-27T08:50:43;66982.28;;;14.31;100.00
46614;BME280;32338;50.430;6.806;2023-05-27T08:53:10;66976.81;;;14.29;100.00
46614;BME280;32338;50.430;6.806;2023-05-27T08:55:39;66989.25;;;14.40;100.00
46614;BME280;32338;50.430;6.806;2023-05-27T08:58:06;67000.53;;;14.50;100.00
46614;BME280;32338;50.430;6.806;2023-05-27T09:00:33;67013.94;;;14.60;100.00
46614;BME280;32338;50.430;6.806;2023-05-27T09:03:00;67027.31;;;14.77;100.00
46614;BME280;32338;50.430;6.806;2023-05-27T09:05:29;67027.31;;;14.77;100.00
46614;BME280;32338;50.430;6.806;2023-05-27T09:07:55;67038.44;;;14.85;100.00
46614;BME280;32338;50.430;6.806;2023-05-27T09:10:22;67048.06;;;14.94;100.00
46614;BME280;32338;50.430;6.806;2023-05-27T09:12:49;67049.56;;;14.93;100.00
46614;BME280;32338;50.430;6.806;2023-05-27T09:15:16;67062.00;;;15.04;100.00
46614;BME280;32338;50.430;6.806;2023-05-27T09:17:44;67062.38;;;15.09;98.73
46614;BME280;32338;50.430;6.806;2023-05-27T09:20:11;67073.88;;;15.22;100.00
46614;BME280;32338;50.430;6.806;2023-05-27T09:22:40;67093.09;;;15.32;100.00
46614;BME280;32338;50.430;6.806;2023-05-27T09:25:07;67104.44;;;15.43;100.00
46614;BME280;32338;50.430;6.806;2023-05-27T09:27:34;67109.69;;;15.50;100.00
46614;BME280;32338;50.430;6.806;2023-05-27T09:30:08;67120.66;;;15.55;97.63
46614;BME280;32338;50.430;6.806;2023-05-27T09:32:35;67118.56;;;15.55;100.00
46614;BME280;32338;50.430;6.806;2023-05-27T09:35:02;67116.69;;;15.59;100.00
46614;BME280;32338;50.430;6.806;2023-05-27T09:37:33;67121.78;;;15.63;92.38
46614;BME280;32338;50.430;6.806;2023-05-27T09:40:05;67135.34;;;15.76;100.00
46614;BME280;32338;50.430;6.806;2023-05-27T09:42:39;67146.88;;;15.81;95.60
46614;BME280;32338;50.430;6.806;2023-05-27T09:45:07;67149.69;;;15.91;96.08
46614;BME280;32338;50.430;6.806;2023-05-27T09:47:36;67170.84;;;16.05;90.52
46614;BME280;32338;50.430;6.806;2023-05-27T09:50:05;67179.34;;;16.13;90.30
46614;BME280;32338;50.430;6.806;2023-05-27T09:52:36;67192.00;;;16.20;88.16
46614;BME280;32338;50.430;6.806;2023-05-27T09:55:06;67206.50;;;16.38;95.57
46614;BME280;32338;50.430;6.806;2023-05-27T09:57:34;67216.31;;;16.49;95.37
46614;BME280;32338;50.430;6.806;2023-05-27T10:00:02;67224.06;;;16.54;87.08
46614;BME280;32338;50.430;6.806;2023-05-27T10:02:36;67227.66;;;16.60;86.35
46614;BME280;32338;50.430;6.806;2023-05-27T10:05:05;67235.41;;;16.64;84.21
46614;BME280;32338;50.430;6.806;2023-05-27T10:07:36;67230.28;;;16.60;81.99
46614;BME280;32338;50.430;6.806;2023-05-27T10:10:06;67234.84;;;16.64;76.33
46614;BME280;32338;50.430;6.806;2023-05-27T10:12:34;67251.06;;;16.76;76.31
46614;BME280;32338;50.430;6.806;2023-05-27T10:15:01;67250.69;;;16.78;78.84
46614;BME280;32338;50.430;6.806;2023-05-27T10:17:27;67262.00;;;16.89;81.09
46614;BME280;32338;50.430;6.806;2023-05-27T10:19:55;67263.34;;;16.92;73.75
46614;BME280;32338;50.430;6.806;2023-05-27T10:22:22;67276.19;;;17.01;79.08
46614;BME280;32338;50.430;6.806;2023-05-27T10:24:49;67271.66;;;16.97;78.49
46614;BME280;32338;50.430;6.806;2023-05-27T10:27:19;67264.28;;;16.91;71.59
46614;BME280;32338;50.430;6.806;2023-05-27T10:29:56;67280.91;;;17.08;73.40
46614;BME280;32338;50.430;6.806;2023-05-27T10:32:24;67297.91;;;17.24;78.48
46614;BME280;32338;50.430;6.806;2023-05-27T10:34:52;67309.63;;;17.32;83.45
46614;BME280;32338;50.430;6.806;2023-05-27T10:37:21;67316.41;;;17.38;73.53
46614;BME280;32338;50.430;6.806;2023-05-27T10:39:55;67330.75;;;17.54;81.18
46614;BME280;32338;50.430;6.806;2023-05-27T10:42:23;67337.19;;;17.55;72.70
46614;BME280;32338;50.430;6.806;2023-05-27T10:45:03;67333.78;;;17.59;73.48
46614;BME280;32338;50.430;6.806;2023-05-27T10:47:29;67336.44;;;17.59;71.86
46614;BME280;32338;50.430;6.806;2023-05-27T10:49:57;67339.84;;;17.62;77.06
46614;BME280;32338;50.430;6.806;2023-05-27T10:52:24;67361.00;;;17.76;76.98
46614;BME280;32338;50.430;6.806;2023-05-27T10:54:57;67370.81;;;17.88;77.26
46614;BME280;32338;50.430;6.806;2023-05-27T10:57:30;67386.72;;;18.02;78.19
46614;BME280;32338;50.430;6.806;2023-05-27T11:00:00;67382.19;;;17.98;74.64
46614;BME280;32338;50.430;6.806;2023-05-27T11:02:30;67377.25;;;17.96;76.38
46614;BME280;32338;50.430;6.806;2023-05-27T11:04:57;67386.72;;;18.02;79.26
46614;BME280;32338;50.430;6.806;2023-05-27T11:07:24;67392.38;;;18.07;80.54
46614;BME280;32338;50.430;6.806;2023-05-27T11:09:51;67391.84;;;18.07;71.67
46614;BME280;32338;50.430;6.806;2023-05-27T11:12:20;67408.66;;;18.20;73.52
46614;BME280;32338;50.430;6.806;2023-05-27T11:14:49;67395.41;;;18.12;75.89
46614;BME280;32338;50.430;6.806;2023-05-27T11:17:17;67419.44;;;18.29;79.90
46614;BME280;32338;50.430;6.806;2023-05-27T11:19:45;67424.13;;;18.36;73.50
46614;BME280;32338;50.430;6.806;2023-05-27T11:22:13;67451.94;;;18.61;72.86
46614;BME280;32338;50.430;6.806;2023-05-27T11:24:39;67458.72;;;18.68;72.14
46614;BME280;32338;50.430;6.806;2023-05-27T11:27:09;67469.91;;;18.75;73.12
46614;BME280;32338;50.430;6.806;2023-05-27T11:29:36;67474.44;;;18.79;76.35
46614;BME280;32338;50.430;6.806;2023-05-27T11:32:05;67474.44;;;18.79;69.79
46614;BME280;32338;50.430;6.806;2023-05-27T11:34:34;67475.94;;;18.86;71.61
46614;BME280;32338;50.430;6.806;2023-05-27T11:37:02;67496.78;;;19.02;74.79
46614;BME280;32338;50.430;6.806;2023-05-27T11:39:30;67532.69;;;19.37;73.53
46614;BME280;32338;50.430;6.806;2023-05-27T11:41:58;67519.06;;;19.25;67.34
46614;BME280;32338;50.430;6.806;2023-05-27T11:44:25;67472.94;;;18.80;63.87
46614;BME280;32338;50.430;6.806;2023-05-27T11:46:58;67463.28;;;18.72;71.63
46614;BME280;32338;50.430;6.806;2023-05-27T11:49:27;67458.19;;;18.67;79.55
46614;BME280;32338;50.430;6.806;2023-05-27T11:51:56;67504.13;;;19.09;72.63
46614;BME280;32338;50.430;6.806;2023-05-27T11:54:24;67548.03;;;19.51;68.69
46614;BME280;32338;50.430;6.806;2023-05-27T11:56:52;67560.31;;;19.60;70.17
46614;BME280;32338;50.430;6.806;2023-05-27T11:59:20;67567.13;;;19.66;74.40
46614;BME280;32338;50.430;6.806;2023-05-27T12:01:48;67559.53;;;19.64;69.42
46614;BME280;32338;50.430;6.806;2023-05-27T12:04:16;67610.88;;;20.06;68.43
46614;BME280;32338;50.430;6.806;2023-05-27T12:06:45;67619.03;;;20.08;67.95
46614;BME280;32338;50.430;6.806;2023-05-27T12:09:13;67621.69;;;20.16;68.72
46614;BME280;32338;50.430;6.806;2023-05-27T12:11:40;67643.81;;;20.36;66.46
46614;BME280;32338;50.430;6.806;2023-05-27T12:14:07;67620.53;;;20.15;61.90
46614;BME280;32338;50.430;6.806;2023-05-27T12:16:34;67601.22;;;19.97;61.97
46614;BME280;32338;50.430;6.806;2023-05-27T12:19:01;67578.84;;;19.82;62.46
46614;BME280;32338;50.430;6.806;2023-05-27T12:21:27;67607.66;;;20.05;65.92
46614;BME280;32338;50.430;6.806;2023-05-27T12:23:56;67635.66;;;20.33;65.27
46614;BME280;32338;50.430;6.806;2023-05-27T12:26:22;67624.88;;;20.23;53.75
46614;BME280;32338;50.430;6.806;2023-05-27T12:28:49;67618.84;;;20.13;52.43
46614;BME280;32338;50.430;6.806;2023-05-27T12:31:16;67573.41;;;19.72;52.45
46614;BME280;32338;50.430;6.806;2023-05-27T12:33:44;67623.94;;;20.18;57.79
46614;BME280;32338;50.430;6.806;2023-05-27T12:36:10;67643.25;;;20.35;58.56
46614;BME280;32338;50.430;6.806;2023-05-27T12:38:37;67710.13;;;20.94;63.48
46614;BME280;32338;50.430;6.806;2023-05-27T12:41:05;67719.75;;;21.10;58.47
46614;BME280;32338;50.430;6.806;2023-05-27T12:43:32;67706.16;;;20.90;52.57
46614;BME280;32338;50.430;6.806;2023-05-27T12:45:59;67733.97;;;21.22;50.65
46614;BME280;32338;50.430;6.806;2023-05-27T12:48:26;67665.19;;;20.60;48.15
46614;BME280;32338;50.430;6.806;2023-05-27T12:50:52;67687.00;;;20.75;50.09
46614;BME280;32338;50.430;6.806;2023-05-27T12:53:19;67751.56;;;21.38;48.67
46614;BME280;32338;50.430;6.806;2023-05-27T12:55:45;67768.09;;;21.46;48.75
46614;BME280;32338;50.430;6.806;2023-05-27T12:58:13;67759.75;;;21.41;48.52